sensor_id;sensor_type;location;lat;lon;timestamp;temperature;humidity
23729;DHT22;12045;60.214;24.724;2022-12-18T00:01:23;1.70;99.90
23729;DHT22;12045;60.214;24.724;2022-12-18T00:03:53;2.90;99.90
23729;DHT22;12045;60.214;24.724;2022-12-18T00:06:21;2.10;99.90
23729;DHT22;12045;60.214;24.724;2022-12-18T00:08:49;2.60;99.90
23729;DHT22;12045;60.214;24.724;2022-12-18T00:11:19;-0.30;99.90
23729;DHT22;12045;60.214;24.724;2022-12-18T00:13:48;0.20;99.90
23729;DHT22;12045;60.214;24.724;2022-12-18T00:16:19;-0.40;99.90
23729;DHT22;12045;60.214;24.724;2022-12-18T00:18:49;1.80;99.90
23729;DHT22;12045;60.214;24.724;2022-12-18T00:21:17;1.90;99.90
23729;DHT22;12045;60.214;24.724;2022-12-18T00:23:47;1.30;99.90
23729;DHT22;12045;60.214;24.724;2022-12-18T00:26:17;2.20;99.90
23729;DHT22;12045;60.214;24.724;2022-12-18T00:28:45;1.80;99.90
23729;DHT22;12045;60.214;24.724;2022-12-18T00:31:16;-0.80;99.90
23729;DHT22;12045;60.214;24.724;2022-12-18T00:33:44;-0.20;99.90
23729;DHT22;12045;60.214;24.724;2022-12-18T00:36:17;1.90;99.90
23729;DHT22;12045;60.214;24.724;2022-12-18T00:38:46;-0.10;99.90
23729;DHT22;12045;60.214;24.724;2022-12-18T00:41:15;0.00;99.90
23729;DHT22;12045;60.214;24.724;2022-12-18T00:44:09;-0.40;99.90
23729;DHT22;12045;60.214;24.724;2022-12-18T00:46:37;-0.20;99.90
23729;DHT22;12045;60.214;24.724;2022-12-18T00:49:04;0.70;99.90
23729;DHT22;12045;60.214;24.724;2022-12-18T00:51:32;0.60;99.90
23729;DHT22;12045;60.214;24.724;2022-12-18T00:54:00;-0.30;99.90
23729;DHT22;12045;60.214;24.724;2022-12-18T00:56:27;0.50;99.90
23729;DHT22;12045;60.214;24.724;2022-12-18T00:58:56;-0.10;99.90
23729;DHT22;12045;60.214;24.724;2022-12-18T01:01:23;2.10;99.90
23729;DHT22;12045;60.214;24.724;2022-12-18T01:03:51;-0.40;99.90
23729;DHT22;12045;60.214;24.724;2022-12-18T01:06:18;-0.20;99.90
23729;DHT22;12045;60.214;24.724;2022-12-18T01:08:46;0.70;99.90
23729;DHT22;12045;60.214;24.724;2022-12-18T01:11:16;-0.10;99.90
23729;DHT22;12045;60.214;24.724;2022-12-18T01:13:44;-0.20;99.90
23729;DHT22;12045;60.214;24.724;2022-12-18T01:16:13;0.90;99.90
23729;DHT22;12045;60.214;24.724;2022-12-18T01:18:41;-0.40;99.90
23729;DHT22;12045;60.214;24.724;2022-12-18T01:21:11;1.80;99.90
23729;DHT22;12045;60.214;24.724;2022-12-18T01:23:39;-0.10;99.90
23729;DHT22;12045;60.214;24.724;2022-12-18T01:26:10;2.00;99.90
23729;DHT22;12045;60.214;24.724;2022-12-18T01:28:38;-0.40;99.90
23729;DHT22;12045;60.214;24.724;2022-12-18T01:31:17;-0.30;99.90
23729;DHT22;12045;60.214;24.724;2022-12-18T01:33:49;0.00;99.90
23729;DHT22;12045;60.214;24.724;2022-12-18T01:36:21;-0.40;99.90
23729;DHT22;12045;60.214;24.724;2022-12-18T01:38:49;1.30;99.90
23729;DHT22;12045;60.214;24.724;2022-12-18T01:41:23;-0.30;99.90
23729;DHT22;12045;60.214;24.724;2022-12-18T01:43:56;0.00;99.90
23729;DHT22;12045;60.214;24.724;2022-12-18T01:46:26;1.30;99.90
23729;DHT22;12045;60.214;24.724;2022-12-18T01:48:56;1.70;99.90
23729;DHT22;12045;60.214;24.724;2022-12-18T01:51:26;2.80;99.90
23729;DHT22;12045;60.214;24.724;2022-12-18T01:53:54;0.10;99.90
23729;DHT22;12045;60.214;24.724;2022-12-18T01:56:22;1.30;99.90
23729;DHT22;12045;60.214;24.724;2022-12-18T01:59:02;0.70;99.90
23729;DHT22;12045;60.214;24.724;2022-12-18T02:01:31;-0.10;99.90
23729;DHT22;12045;60.214;24.724;2022-12-18T02:06:47;1.90;99.90
23729;DHT22;12045;60.214;24.724;2022-12-18T02:09:28;0.90;99.90
23729;DHT22;12045;60.214;24.724;2022-12-18T02:12:16;-0.10;99.90
23729;DHT22;12045;60.214;24.724;2022-12-18T02:18:08;0.70;99.90
23729;DHT22;12045;60.214;24.724;2022-12-18T02:21:06;0.10;99.90
23729;DHT22;12045;60.214;24.724;2022-12-18T02:26:47;0.10;99.90
23729;DHT22;12045;60.214;24.724;2022-12-18T02:29:25;0.00;99.90
23729;DHT22;12045;60.214;24.724;2022-12-18T02:31:59;0.10;99.90
23729;DHT22;12045;60.214;24.724;2022-12-18T02:34:33;0.20;99.90
23729;DHT22;12045;60.214;24.724;2022-12-18T02:37:04;0.20;99.90
23729;DHT22;12045;60.214;24.724;2022-12-18T02:39:34;3.60;99.90
23729;DHT22;12045;60.214;24.724;2022-12-18T02:42:02;2.60;99.90
23729;DHT22;12045;60.214;24.724;2022-12-18T02:44:42;1.20;99.90
23729;DHT22;12045;60.214;24.724;2022-12-18T02:47:11;0.80;99.90
23729;DHT22;12045;60.214;24.724;2022-12-18T02:58:03;0.40;99.90
23729;DHT22;12045;60.214;24.724;2022-12-18T03:00:51;0.50;99.90
23729;DHT22;12045;60.214;24.724;2022-12-18T03:03:34;0.80;99.90
23729;DHT22;12045;60.214;24.724;2022-12-18T03:06:28;0.60;99.90
23729;DHT22;12045;60.214;24.724;2022-12-18T03:09:09;0.50;99.90
23729;DHT22;12045;60.214;24.724;2022-12-18T03:11:40;0.50;99.90
23729;DHT22;12045;60.214;24.724;2022-12-18T03:14:30;2.30;99.90
23729;DHT22;12045;60.214;24.724;2022-12-18T03:17:02;1.90;99.90
23729;DHT22;12045;60.214;24.724;2022-12-18T03:19:32;2.50;99.90
23729;DHT22;12045;60.214;24.724;2022-12-18T03:22:02;0.50;99.90
23729;DHT22;12045;60.214;24.724;2022-12-18T03:24:31;2.20;99.90
23729;DHT22;12045;60.214;24.724;2022-12-18T03:27:02;0.40;99.90
23729;DHT22;12045;60.214;24.724;2022-12-18T03:29:38;0.60;99.90
23729;DHT22;12045;60.214;24.724;2022-12-18T03:32:15;1.60;99.90
23729;DHT22;12045;60.214;24.724;2022-12-18T03:34:46;1.60;99.90
23729;DHT22;12045;60.214;24.724;2022-12-18T03:37:14;1.90;99.90
23729;DHT22;12045;60.214;24.724;2022-12-18T03:39:42;0.60;99.90
23729;DHT22;12045;60.214;24.724;2022-12-18T03:42:16;0.80;99.90
23729;DHT22;12045;60.214;24.724;2022-12-18T03:48:16;0.70;99.90
23729;DHT22;12045;60.214;24.724;2022-12-18T03:56:01;1.40;99.90
23729;DHT22;12045;60.214;24.724;2022-12-18T03:58:32;1.20;99.90
23729;DHT22;12045;60.214;24.724;2022-12-18T04:01:04;2.80;99.90
23729;DHT22;12045;60.214;24.724;2022-12-18T04:03:34;2.80;99.90
23729;DHT22;12045;60.214;24.724;2022-12-18T04:06:03;2.00;99.90
23729;DHT22;12045;60.214;24.724;2022-12-18T04:08:32;0.90;99.90
23729;DHT22;12045;60.214;24.724;2022-12-18T04:11:01;3.40;99.90
23729;DHT22;12045;60.214;24.724;2022-12-18T04:13:33;2.40;99.90
23729;DHT22;12045;60.214;24.724;2022-12-18T04:16:01;2.20;99.90
23729;DHT22;12045;60.214;24.724;2022-12-18T04:20:56;1.30;99.90
23729;DHT22;12045;60.214;24.724;2022-12-18T04:23:24;0.90;99.90
23729;DHT22;12045;60.214;24.724;2022-12-18T04:25:51;1.10;99.90
23729;DHT22;12045;60.214;24.724;2022-12-18T04:43:10;1.50;99.90
23729;DHT22;12045;60.214;24.724;2022-12-18T04:45:38;0.80;99.90
23729;DHT22;12045;60.214;24.724;2022-12-18T04:48:06;1.50;99.90
23729;DHT22;12045;60.214;24.724;2022-12-18T04:50:34;2.60;99.90
23729;DHT22;12045;60.214;24.724;2022-12-18T04:53:01;1.50;99.90
23729;DHT22;12045;60.214;24.724;2022-12-18T04:55:29;2.30;99.90
23729;DHT22;12045;60.214;24.724;2022-12-18T04:57:56;1.30;99.90
23729;DHT22;12045;60.214;24.724;2022-12-18T05:00:24;2.50;99.90
23729;DHT22;12045;60.214;24.724;2022-12-18T05:02:51;2.60;99.90
23729;DHT22;12045;60.214;24.724;2022-12-18T05:05:19;3.20;99.90
23729;DHT22;12045;60.214;24.724;2022-12-18T05:07:46;1.50;99.90
23729;DHT22;12045;60.214;24.724;2022-12-18T05:10:14;1.60;99.90
23729;DHT22;12045;60.214;24.724;2022-12-18T05:12:41;1.40;99.90
23729;DHT22;12045;60.214;24.724;2022-12-18T05:15:31;1.50;99.90
23729;DHT22;12045;60.214;24.724;2022-12-18T05:17:59;1.70;99.90
23729;DHT22;12045;60.214;24.724;2022-12-18T05:20:28;1.40;99.90
23729;DHT22;12045;60.214;24.724;2022-12-18T05:22:55;3.00;99.90
23729;DHT22;12045;60.214;24.724;2022-12-18T05:25:23;1.40;99.90
23729;DHT22;12045;60.214;24.724;2022-12-18T05:32:46;1.40;99.90
23729;DHT22;12045;60.214;24.724;2022-12-18T05:35:14;1.60;99.90
23729;DHT22;12045;60.214;24.724;2022-12-18T05:40:10;1.70;99.90
23729;DHT22;12045;60.214;24.724;2022-12-18T05:42:38;1.60;99.90
23729;DHT22;12045;60.214;24.724;2022-12-18T05:45:06;1.60;99.90
23729;DHT22;12045;60.214;24.724;2022-12-18T05:47:34;1.50;99.90
23729;DHT22;12045;60.214;24.724;2022-12-18T05:50:02;1.70;99.90
23729;DHT22;12045;60.214;24.724;2022-12-18T05:52:30;1.80;99.90
23729;DHT22;12045;60.214;24.724;2022-12-18T05:54:57;1.90;99.90
23729;DHT22;12045;60.214;24.724;2022-12-18T05:57:26;2.20;99.90
23729;DHT22;12045;60.214;24.724;2022-12-18T05:59:53;1.80;99.90
23729;DHT22;12045;60.214;24.724;2022-12-18T06:02:21;1.50;99.90
23729;DHT22;12045;60.214;24.724;2022-12-18T06:04:48;1.80;99.90
23729;DHT22;12045;60.214;24.724;2022-12-18T06:07:16;1.70;99.90
23729;DHT22;12045;60.214;24.724;2022-12-18T06:09:43;1.90;99.90
23729;DHT22;12045;60.214;24.724;2022-12-18T06:12:10;1.80;99.90
23729;DHT22;12045;60.214;24.724;2022-12-18T06:14:38;1.80;99.90
23729;DHT22;12045;60.214;24.724;2022-12-18T06:17:06;1.20;99.90
23729;DHT22;12045;60.214;24.724;2022-12-18T06:19:34;1.20;99.90
23729;DHT22;12045;60.214;24.724;2022-12-18T06:22:01;1.80;99.90
23729;DHT22;12045;60.214;24.724;2022-12-18T06:24:29;1.90;99.90
23729;DHT22;12045;60.214;24.724;2022-12-18T06:26:57;1.70;99.90
23729;DHT22;12045;60.214;24.724;2022-12-18T06:29:24;1.90;99.90
23729;DHT22;12045;60.214;24.724;2022-12-18T06:31:52;2.40;99.90
23729;DHT22;12045;60.214;24.724;2022-12-18T06:34:19;1.80;99.90
23729;DHT22;12045;60.214;24.724;2022-12-18T06:36:47;1.70;99.90
23729;DHT22;12045;60.214;24.724;2022-12-18T06:39:14;1.80;99.90
23729;DHT22;12045;60.214;24.724;2022-12-18T06:44:10;1.70;99.90
23729;DHT22;12045;60.214;24.724;2022-12-18T06:49:07;1.80;99.90
23729;DHT22;12045;60.214;24.724;2022-12-18T06:51:36;1.90;99.90
23729;DHT22;12045;60.214;24.724;2022-12-18T06:54:03;1.50;99.90
23729;DHT22;12045;60.214;24.724;2022-12-18T06:56:31;1.90;99.90
23729;DHT22;12045;60.214;24.724;2022-12-18T06:58:58;2.90;99.90
23729;DHT22;12045;60.214;24.724;2022-12-18T07:01:26;2.50;99.90
23729;DHT22;12045;60.214;24.724;2022-12-18T07:03:55;2.00;99.90
23729;DHT22;12045;60.214;24.724;2022-12-18T07:06:25;3.40;99.90
23729;DHT22;12045;60.214;24.724;2022-12-18T07:08:53;2.90;99.90
23729;DHT22;12045;60.214;24.724;2022-12-18T07:11:21;1.80;99.90
23729;DHT22;12045;60.214;24.724;2022-12-18T07:13:49;1.80;99.90
23729;DHT22;12045;60.214;24.724;2022-12-18T07:16:18;1.90;99.90
23729;DHT22;12045;60.214;24.724;2022-12-18T07:18:51;1.70;99.90
23729;DHT22;12045;60.214;24.724;2022-12-18T07:21:19;1.80;99.90
23729;DHT22;12045;60.214;24.724;2022-12-18T07:26:17;1.90;99.90
23729;DHT22;12045;60.214;24.724;2022-12-18T07:28:45;1.90;99.90
23729;DHT22;12045;60.214;24.724;2022-12-18T07:31:19;2.20;99.90
23729;DHT22;12045;60.214;24.724;2022-12-18T07:33:48;2.80;99.90
23729;DHT22;12045;60.214;24.724;2022-12-18T07:36:16;2.80;99.90
23729;DHT22;12045;60.214;24.724;2022-12-18T07:38:46;3.30;99.90
23729;DHT22;12045;60.214;24.724;2022-12-18T07:41:14;2.70;99.90
23729;DHT22;12045;60.214;24.724;2022-12-18T07:43:42;2.60;99.90
23729;DHT22;12045;60.214;24.724;2022-12-18T07:46:11;1.90;99.90
23729;DHT22;12045;60.214;24.724;2022-12-18T07:48:42;1.80;99.90
23729;DHT22;12045;60.214;24.724;2022-12-18T07:51:16;3.70;99.90
23729;DHT22;12045;60.214;24.724;2022-12-18T07:53:44;2.90;99.90
23729;DHT22;12045;60.214;24.724;2022-12-18T07:56:12;2.10;99.90
23729;DHT22;12045;60.214;24.724;2022-12-18T07:58:58;3.10;99.90
23729;DHT22;12045;60.214;24.724;2022-12-18T08:01:26;2.50;99.90
23729;DHT22;12045;60.214;24.724;2022-12-18T08:03:54;3.00;99.90
23729;DHT22;12045;60.214;24.724;2022-12-18T08:06:22;4.70;99.90
23729;DHT22;12045;60.214;24.724;2022-12-18T08:08:54;2.20;99.90
23729;DHT22;12045;60.214;24.724;2022-12-18T08:11:24;3.40;99.90
23729;DHT22;12045;60.214;24.724;2022-12-18T08:13:52;4.00;99.90
23729;DHT22;12045;60.214;24.724;2022-12-18T08:16:21;2.80;99.90
23729;DHT22;12045;60.214;24.724;2022-12-18T08:18:49;3.50;99.90
23729;DHT22;12045;60.214;24.724;2022-12-18T08:21:21;2.50;99.90
23729;DHT22;12045;60.214;24.724;2022-12-18T08:23:50;3.90;99.90
23729;DHT22;12045;60.214;24.724;2022-12-18T08:26:19;4.20;99.90
23729;DHT22;12045;60.214;24.724;2022-12-18T08:28:48;2.50;99.90
23729;DHT22;12045;60.214;24.724;2022-12-18T08:31:17;2.30;99.90
23729;DHT22;12045;60.214;24.724;2022-12-18T08:33:47;2.70;99.90
23729;DHT22;12045;60.214;24.724;2022-12-18T08:36:16;2.50;99.90
23729;DHT22;12045;60.214;24.724;2022-12-18T08:38:43;2.90;99.90
23729;DHT22;12045;60.214;24.724;2022-12-18T08:41:12;2.90;99.90
23729;DHT22;12045;60.214;24.724;2022-12-18T08:43:40;3.90;99.90
23729;DHT22;12045;60.214;24.724;2022-12-18T08:46:30;3.10;99.90
23729;DHT22;12045;60.214;24.724;2022-12-18T08:48:59;2.40;99.90
23729;DHT22;12045;60.214;24.724;2022-12-18T08:51:27;2.50;99.90
23729;DHT22;12045;60.214;24.724;2022-12-18T08:53:54;2.20;99.90
23729;DHT22;12045;60.214;24.724;2022-12-18T08:56:21;2.90;99.90
23729;DHT22;12045;60.214;24.724;2022-12-18T08:58:52;2.70;99.90
23729;DHT22;12045;60.214;24.724;2022-12-18T09:01:21;2.80;99.90
23729;DHT22;12045;60.214;24.724;2022-12-18T09:03:49;2.40;99.90
23729;DHT22;12045;60.214;24.724;2022-12-18T09:06:18;3.20;99.90
23729;DHT22;12045;60.214;24.724;2022-12-18T09:08:46;3.30;99.90
23729;DHT22;12045;60.214;24.724;2022-12-18T09:11:22;2.30;99.90
23729;DHT22;12045;60.214;24.724;2022-12-18T09:13:50;3.70;99.90
23729;DHT22;12045;60.214;24.724;2022-12-18T09:16:18;4.40;99.90
23729;DHT22;12045;60.214;24.724;2022-12-18T09:18:46;2.30;99.90
23729;DHT22;12045;60.214;24.724;2022-12-18T09:21:16;3.50;99.90
23729;DHT22;12045;60.214;24.724;2022-12-18T09:23:48;3.70;99.90
23729;DHT22;12045;60.214;24.724;2022-12-18T09:26:15;2.40;99.90
23729;DHT22;12045;60.214;24.724;2022-12-18T09:28:43;3.40;99.90
23729;DHT22;12045;60.214;24.724;2022-12-18T09:31:15;2.40;99.90
23729;DHT22;12045;60.214;24.724;2022-12-18T09:33:43;2.70;99.90
23729;DHT22;12045;60.214;24.724;2022-12-18T09:36:15;2.60;99.90
23729;DHT22;12045;60.214;24.724;2022-12-18T09:38:44;2.40;99.90
23729;DHT22;12045;60.214;24.724;2022-12-18T09:41:39;2.60;99.90
23729;DHT22;12045;60.214;24.724;2022-12-18T09:44:27;2.20;99.90
23729;DHT22;12045;60.214;24.724;2022-12-18T09:49:46;3.20;99.90
23729;DHT22;12045;60.214;24.724;2022-12-18T09:52:35;3.40;99.90
23729;DHT22;12045;60.214;24.724;2022-12-18T09:55:36;3.40;99.90
23729;DHT22;12045;60.214;24.724;2022-12-18T09:58:35;2.50;99.90
23729;DHT22;12045;60.214;24.724;2022-12-18T10:01:10;2.20;99.90
23729;DHT22;12045;60.214;24.724;2022-12-18T10:03:39;3.20;99.90
23729;DHT22;12045;60.214;24.724;2022-12-18T10:06:27;2.30;99.90
23729;DHT22;12045;60.214;24.724;2022-12-18T10:11:55;2.30;99.90
23729;DHT22;12045;60.214;24.724;2022-12-18T10:17:26;2.40;99.90
23729;DHT22;12045;60.214;24.724;2022-12-18T10:25:53;2.20;99.90
23729;DHT22;12045;60.214;24.724;2022-12-18T10:28:23;3.30;99.90
23729;DHT22;12045;60.214;24.724;2022-12-18T10:30:52;3.10;99.90
23729;DHT22;12045;60.214;24.724;2022-12-18T10:33:22;3.60;99.90
23729;DHT22;12045;60.214;24.724;2022-12-18T10:35:54;3.20;99.90
23729;DHT22;12045;60.214;24.724;2022-12-18T10:38:27;3.00;99.90
23729;DHT22;12045;60.214;24.724;2022-12-18T10:41:25;2.30;99.90
23729;DHT22;12045;60.214;24.724;2022-12-18T10:46:38;3.20;99.90
23729;DHT22;12045;60.214;24.724;2022-12-18T10:49:36;2.40;99.90
23729;DHT22;12045;60.214;24.724;2022-12-18T10:54:39;2.20;99.90
23729;DHT22;12045;60.214;24.724;2022-12-18T10:57:32;3.40;99.90
23729;DHT22;12045;60.214;24.724;2022-12-18T11:02:49;2.40;99.90
23729;DHT22;12045;60.214;24.724;2022-12-18T11:05:35;3.30;99.90
23729;DHT22;12045;60.214;24.724;2022-12-18T11:08:04;3.20;99.90
23729;DHT22;12045;60.214;24.724;2022-12-18T11:10:36;4.50;99.90
23729;DHT22;12045;60.214;24.724;2022-12-18T11:13:19;2.40;99.90
23729;DHT22;12045;60.214;24.724;2022-12-18T11:15:48;3.30;99.90
23729;DHT22;12045;60.214;24.724;2022-12-18T11:18:28;2.20;99.90
23729;DHT22;12045;60.214;24.724;2022-12-18T11:21:07;2.40;99.90
23729;DHT22;12045;60.214;24.724;2022-12-18T11:23:36;2.40;99.90
23729;DHT22;12045;60.214;24.724;2022-12-18T11:26:05;2.70;99.90
23729;DHT22;12045;60.214;24.724;2022-12-18T11:29:07;3.30;99.90
23729;DHT22;12045;60.214;24.724;2022-12-18T11:31:35;3.50;99.90
23729;DHT22;12045;60.214;24.724;2022-12-18T11:34:29;2.30;99.90
23729;DHT22;12045;60.214;24.724;2022-12-18T11:37:00;2.30;99.90
23729;DHT22;12045;60.214;24.724;2022-12-18T11:39:52;2.60;99.90
23729;DHT22;12045;60.214;24.724;2022-12-18T11:42:35;2.90;99.90
23729;DHT22;12045;60.214;24.724;2022-12-18T11:47:57;2.40;99.90
23729;DHT22;12045;60.214;24.724;2022-12-18T11:50:38;2.50;99.90
23729;DHT22;12045;60.214;24.724;2022-12-18T11:53:11;3.10;99.90
23729;DHT22;12045;60.214;24.724;2022-12-18T11:58:48;2.70;99.90
23729;DHT22;12045;60.214;24.724;2022-12-18T12:04:03;2.50;99.90
23729;DHT22;12045;60.214;24.724;2022-12-18T12:07:27;3.10;99.90
23729;DHT22;12045;60.214;24.724;2022-12-18T12:18:29;2.70;99.90
23729;DHT22;12045;60.214;24.724;2022-12-18T12:24:10;2.80;99.90
23729;DHT22;12045;60.214;24.724;2022-12-18T12:26:46;2.40;99.90
23729;DHT22;12045;60.214;24.724;2022-12-18T12:29:26;3.20;99.90
23729;DHT22;12045;60.214;24.724;2022-12-18T12:32:20;2.90;99.90
23729;DHT22;12045;60.214;24.724;2022-12-18T12:40:38;2.80;99.90
23729;DHT22;12045;60.214;24.724;2022-12-18T12:46:05;2.50;99.90
23729;DHT22;12045;60.214;24.724;2022-12-18T12:48:46;2.40;99.90
23729;DHT22;12045;60.214;24.724;2022-12-18T12:51:25;2.70;99.90
23729;DHT22;12045;60.214;24.724;2022-12-18T12:53:55;3.30;99.90
23729;DHT22;12045;60.214;24.724;2022-12-18T12:56:38;2.90;99.90
23729;DHT22;12045;60.214;24.724;2022-12-18T13:07:57;2.90;99.90
23729;DHT22;12045;60.214;24.724;2022-12-18T13:13:08;2.90;99.90
23729;DHT22;12045;60.214;24.724;2022-12-18T13:23:31;2.80;99.90
23729;DHT22;12045;60.214;24.724;2022-12-18T13:34:29;2.90;99.90
23729;DHT22;12045;60.214;24.724;2022-12-18T13:37:39;3.50;99.90
23729;DHT22;12045;60.214;24.724;2022-12-18T13:46:20;2.70;99.90
23729;DHT22;12045;60.214;24.724;2022-12-18T13:51:41;3.30;99.90
23729;DHT22;12045;60.214;24.724;2022-12-18T13:56:45;2.70;99.90
23729;DHT22;12045;60.214;24.724;2022-12-18T13:59:36;3.00;99.90
23729;DHT22;12045;60.214;24.724;2022-12-18T14:02:20;3.20;99.90
23729;DHT22;12045;60.214;24.724;2022-12-18T14:04:50;3.50;99.90
23729;DHT22;12045;60.214;24.724;2022-12-18T14:07:29;3.60;99.90
23729;DHT22;12045;60.214;24.724;2022-12-18T14:10:04;3.80;99.90
23729;DHT22;12045;60.214;24.724;2022-12-18T14:12:51;3.00;99.90
23729;DHT22;12045;60.214;24.724;2022-12-18T14:15:41;3.80;99.90
23729;DHT22;12045;60.214;24.724;2022-12-18T14:21:00;3.00;99.90
23729;DHT22;12045;60.214;24.724;2022-12-18T14:23:40;3.40;99.90
23729;DHT22;12045;60.214;24.724;2022-12-18T14:26:38;3.50;99.90
23729;DHT22;12045;60.214;24.724;2022-12-18T14:29:25;3.20;99.90
23729;DHT22;12045;60.214;24.724;2022-12-18T14:34:48;2.80;99.90
23729;DHT22;12045;60.214;24.724;2022-12-18T14:37:20;3.50;99.90
23729;DHT22;12045;60.214;24.724;2022-12-18T14:39:56;4.00;99.90
23729;DHT22;12045;60.214;24.724;2022-12-18T14:42:26;3.20;99.90
23729;DHT22;12045;60.214;24.724;2022-12-18T14:48:11;3.00;99.90
23729;DHT22;12045;60.214;24.724;2022-12-18T14:50:41;3.30;99.90
23729;DHT22;12045;60.214;24.724;2022-12-18T14:53:21;3.60;99.90
23729;DHT22;12045;60.214;24.724;2022-12-18T14:55:48;3.90;99.90
23729;DHT22;12045;60.214;24.724;2022-12-18T14:58:18;3.70;99.90
23729;DHT22;12045;60.214;24.724;2022-12-18T15:00:46;3.00;99.90
23729;DHT22;12045;60.214;24.724;2022-12-18T15:03:18;3.60;99.90
23729;DHT22;12045;60.214;24.724;2022-12-18T15:05:47;3.70;99.90
23729;DHT22;12045;60.214;24.724;2022-12-18T15:08:35;3.20;99.90
23729;DHT22;12045;60.214;24.724;2022-12-18T15:11:03;3.90;99.90
23729;DHT22;12045;60.214;24.724;2022-12-18T15:13:50;3.10;99.90
23729;DHT22;12045;60.214;24.724;2022-12-18T15:16:17;4.60;99.90
23729;DHT22;12045;60.214;24.724;2022-12-18T15:18:45;3.20;99.90
23729;DHT22;12045;60.214;24.724;2022-12-18T15:21:19;3.90;99.90
23729;DHT22;12045;60.214;24.724;2022-12-18T15:23:50;4.10;99.90
23729;DHT22;12045;60.214;24.724;2022-12-18T15:26:21;4.10;99.90
23729;DHT22;12045;60.214;24.724;2022-12-18T15:28:51;3.50;99.90
23729;DHT22;12045;60.214;24.724;2022-12-18T15:31:23;3.00;99.90
23729;DHT22;12045;60.214;24.724;2022-12-18T15:36:22;4.60;99.90
23729;DHT22;12045;60.214;24.724;2022-12-18T15:38:54;4.10;99.90
23729;DHT22;12045;60.214;24.724;2022-12-18T15:41:34;3.20;99.90
23729;DHT22;12045;60.214;24.724;2022-12-18T15:44:15;3.60;99.90
23729;DHT22;12045;60.214;24.724;2022-12-18T15:46:48;2.90;99.90
23729;DHT22;12045;60.214;24.724;2022-12-18T15:49:16;3.50;99.90
23729;DHT22;12045;60.214;24.724;2022-12-18T15:51:44;3.00;99.90
23729;DHT22;12045;60.214;24.724;2022-12-18T15:54:14;3.20;99.90
23729;DHT22;12045;60.214;24.724;2022-12-18T15:56:43;4.20;99.90
23729;DHT22;12045;60.214;24.724;2022-12-18T15:59:29;3.70;99.90
23729;DHT22;12045;60.214;24.724;2022-12-18T16:01:56;3.00;99.90
23729;DHT22;12045;60.214;24.724;2022-12-18T16:04:25;2.90;99.90
23729;DHT22;12045;60.214;24.724;2022-12-18T16:06:53;3.50;99.90
23729;DHT22;12045;60.214;24.724;2022-12-18T16:09:41;3.60;99.90
23729;DHT22;12045;60.214;24.724;2022-12-18T16:12:21;3.60;99.90
23729;DHT22;12045;60.214;24.724;2022-12-18T16:14:49;3.70;99.90
23729;DHT22;12045;60.214;24.724;2022-12-18T16:17:17;3.50;99.90
23729;DHT22;12045;60.214;24.724;2022-12-18T16:19:45;3.20;99.90
23729;DHT22;12045;60.214;24.724;2022-12-18T16:22:22;4.40;99.90
23729;DHT22;12045;60.214;24.724;2022-12-18T16:24:50;3.00;99.90
23729;DHT22;12045;60.214;24.724;2022-12-18T16:27:19;3.10;99.90
23729;DHT22;12045;60.214;24.724;2022-12-18T16:29:47;3.90;99.90
23729;DHT22;12045;60.214;24.724;2022-12-18T16:32:16;3.60;99.90
23729;DHT22;12045;60.214;24.724;2022-12-18T16:34:45;4.10;99.90
23729;DHT22;12045;60.214;24.724;2022-12-18T16:37:14;2.90;99.90
23729;DHT22;12045;60.214;24.724;2022-12-18T16:39:42;3.70;99.90
23729;DHT22;12045;60.214;24.724;2022-12-18T16:42:16;2.70;99.90
23729;DHT22;12045;60.214;24.724;2022-12-18T16:44:48;4.30;99.90
23729;DHT22;12045;60.214;24.724;2022-12-18T16:47:16;3.60;99.90
23729;DHT22;12045;60.214;24.724;2022-12-18T16:49:44;3.50;99.90
23729;DHT22;12045;60.214;24.724;2022-12-18T16:52:13;2.90;99.90
23729;DHT22;12045;60.214;24.724;2022-12-18T16:54:40;3.70;99.90
23729;DHT22;12045;60.214;24.724;2022-12-18T16:57:10;2.60;99.90
23729;DHT22;12045;60.214;24.724;2022-12-18T16:59:39;3.40;99.90
23729;DHT22;12045;60.214;24.724;2022-12-18T17:02:13;3.80;99.90
23729;DHT22;12045;60.214;24.724;2022-12-18T17:04:43;3.10;99.90
23729;DHT22;12045;60.214;24.724;2022-12-18T17:07:11;3.20;99.90
23729;DHT22;12045;60.214;24.724;2022-12-18T17:09:38;3.50;99.90
23729;DHT22;12045;60.214;24.724;2022-12-18T17:12:07;2.80;99.90
23729;DHT22;12045;60.214;24.724;2022-12-18T17:14:35;1.80;99.90
23729;DHT22;12045;60.214;24.724;2022-12-18T17:17:03;4.10;99.90
23729;DHT22;12045;60.214;24.724;2022-12-18T17:19:49;3.40;99.90
23729;DHT22;12045;60.214;24.724;2022-12-18T17:22:18;3.50;99.90
23729;DHT22;12045;60.214;24.724;2022-12-18T17:24:46;3.40;99.90
23729;DHT22;12045;60.214;24.724;2022-12-18T17:27:14;3.30;99.90
23729;DHT22;12045;60.214;24.724;2022-12-18T17:29:41;4.10;99.90
23729;DHT22;12045;60.214;24.724;2022-12-18T17:32:15;2.70;99.90
23729;DHT22;12045;60.214;24.724;2022-12-18T17:34:43;2.60;99.90
23729;DHT22;12045;60.214;24.724;2022-12-18T17:37:10;3.10;99.90
23729;DHT22;12045;60.214;24.724;2022-12-18T17:39:38;4.00;99.90
23729;DHT22;12045;60.214;24.724;2022-12-18T17:42:05;2.90;99.90
23729;DHT22;12045;60.214;24.724;2022-12-18T17:44:35;2.90;99.90
23729;DHT22;12045;60.214;24.724;2022-12-18T17:47:03;2.90;99.90
23729;DHT22;12045;60.214;24.724;2022-12-18T17:49:32;2.70;99.90
23729;DHT22;12045;60.214;24.724;2022-12-18T17:51:59;3.50;99.90
23729;DHT22;12045;60.214;24.724;2022-12-18T17:54:27;2.80;99.90
23729;DHT22;12045;60.214;24.724;2022-12-18T17:56:54;4.20;99.90
23729;DHT22;12045;60.214;24.724;2022-12-18T17:59:22;3.60;99.90
23729;DHT22;12045;60.214;24.724;2022-12-18T18:01:49;3.60;99.90
23729;DHT22;12045;60.214;24.724;2022-12-18T18:04:18;2.40;99.90
23729;DHT22;12045;60.214;24.724;2022-12-18T18:06:45;3.60;99.90
23729;DHT22;12045;60.214;24.724;2022-12-18T18:09:13;3.20;99.90
23729;DHT22;12045;60.214;24.724;2022-12-18T18:11:44;4.00;99.90
23729;DHT22;12045;60.214;24.724;2022-12-18T18:14:31;3.40;99.90
23729;DHT22;12045;60.214;24.724;2022-12-18T18:17:00;3.80;99.90
23729;DHT22;12045;60.214;24.724;2022-12-18T18:19:31;3.40;99.90
23729;DHT22;12045;60.214;24.724;2022-12-18T18:21:59;2.70;99.90
23729;DHT22;12045;60.214;24.724;2022-12-18T18:24:29;4.00;99.90
23729;DHT22;12045;60.214;24.724;2022-12-18T18:26:56;3.00;99.90
23729;DHT22;12045;60.214;24.724;2022-12-18T18:29:27;4.90;99.90
23729;DHT22;12045;60.214;24.724;2022-12-18T18:31:57;4.20;99.90
23729;DHT22;12045;60.214;24.724;2022-12-18T18:34:28;3.60;99.90
23729;DHT22;12045;60.214;24.724;2022-12-18T18:37:00;3.70;99.90
23729;DHT22;12045;60.214;24.724;2022-12-18T18:39:28;3.80;99.90
23729;DHT22;12045;60.214;24.724;2022-12-18T18:41:56;3.40;99.90